createdAt,value
2018-02-12T00:00:00.553Z,997.64
2018-02-12T00:00:40.889Z,997.66
2018-02-12T00:01:21.246Z,997.69
2018-02-12T00:02:01.714Z,997.73
2018-02-12T00:02:42.083Z,997.74
2018-02-12T00:03:22.403Z,997.7
2018-02-12T00:04:02.824Z,997.74
2018-02-12T00:04:43.344Z,997.76
2018-02-12T00:05:23.655Z,997.83
2018-02-12T00:06:04.043Z,997.85
2018-02-12T00:06:44.438Z,997.82
2018-02-12T00:07:24.849Z,997.84
2018-02-12T00:08:05.288Z,997.82
2018-02-12T00:08:45.746Z,997.78
2018-02-12T00:09:26.151Z,997.89
2018-02-12T00:10:06.626Z,997.82
2018-02-12T00:10:46.964Z,997.82
2018-02-12T00:11:27.384Z,997.88
2018-02-12T00:12:07.749Z,997.92
2018-02-12T00:12:48.145Z,997.91
2018-02-12T00:13:28.517Z,997.9
2018-02-12T00:14:08.910Z,997.91
2018-02-12T00:14:49.301Z,997.88
2018-02-12T00:15:30.350Z,997.91
2018-02-12T00:17:30.264Z,997.97
2018-02-12T00:18:10.241Z,997.98
2018-02-12T00:18:50.795Z,997.93
2018-02-12T00:19:31.149Z,997.97
2018-02-12T00:20:11.727Z,997.97
2018-02-12T00:20:52.427Z,998.02
2018-02-12T00:21:33.226Z,997.99
2018-02-12T00:22:13.659Z,997.98
2018-02-12T00:22:54.157Z,998
2018-02-12T00:23:34.891Z,998.04
2018-02-12T00:24:15.334Z,998.04
2018-02-12T00:24:56.643Z,998.03
2018-02-12T00:25:37.251Z,998.03
2018-02-12T00:26:17.608Z,998
2018-02-12T00:26:59.350Z,997.98
2018-02-12T00:27:40.875Z,998.02
2018-02-12T00:28:23.047Z,998.04
2018-02-12T00:29:03.420Z,998.01
2018-02-12T00:29:43.874Z,998
2018-02-12T00:30:24.227Z,997.99
2018-02-12T00:31:04.598Z,998.05
2018-02-12T00:31:45.029Z,998.09
2018-02-12T00:32:25.410Z,998.09
2018-02-12T00:33:05.847Z,998.12
2018-02-12T00:33:46.172Z,998.1
2018-02-12T00:34:26.587Z,998.12
2018-02-12T00:35:07.009Z,998.15
2018-02-12T00:35:47.411Z,998.14
2018-02-12T00:36:27.808Z,998.13
2018-02-12T00:37:08.198Z,998.13
2018-02-12T00:37:48.608Z,998.21
2018-02-12T00:38:29.031Z,998.16
2018-02-12T00:39:09.517Z,998.18
2018-02-12T00:39:49.815Z,998.16
2018-02-12T00:40:30.221Z,998.17
2018-02-12T00:41:10.617Z,998.19
2018-02-12T00:41:51.372Z,998.2
2018-02-12T00:42:31.775Z,998.25
2018-02-12T00:45:03.068Z,998.12
2018-02-12T00:45:46.272Z,998.21
2018-02-12T00:46:26.679Z,998.28
2018-02-12T00:47:07.064Z,998.25
2018-02-12T00:47:47.465Z,998.19
2018-02-12T00:48:27.884Z,998.25
2018-02-12T00:49:08.300Z,998.26
2018-02-12T00:49:48.688Z,998.28
2018-02-12T00:50:29.186Z,998.31
2018-02-12T00:51:09.664Z,998.34
2018-02-12T00:51:50.097Z,998.28
2018-02-12T00:52:30.520Z,998.35
2018-02-12T00:53:10.886Z,998.32
2018-02-12T00:53:51.965Z,998.33
2018-02-12T00:54:32.659Z,998.33
2018-02-12T00:55:13.637Z,998.3
2018-02-12T00:55:54.021Z,998.4
2018-02-12T00:56:34.790Z,998.33
2018-02-12T00:57:14.997Z,998.39
2018-02-12T00:57:55.436Z,998.33
2018-02-12T00:58:36.171Z,998.38
2018-02-12T00:59:16.456Z,998.38
2018-02-12T00:59:56.879Z,998.4
2018-02-12T01:00:37.288Z,998.37
2018-02-12T01:01:17.686Z,998.29
2018-02-12T01:05:28.757Z,998.37
2018-02-12T01:06:21.295Z,998.39
2018-02-12T01:07:14.572Z,998.35
2018-02-12T01:08:06.693Z,998.41
2018-02-12T01:08:59.188Z,998.39
2018-02-12T01:09:52.334Z,998.3
2018-02-12T01:10:44.660Z,998.41
2018-02-12T01:11:37.133Z,998.4
2018-02-12T01:12:29.739Z,998.37
2018-02-12T01:13:22.023Z,998.43
2018-02-12T01:14:14.309Z,998.39
2018-02-12T01:15:07.302Z,998.44
2018-02-12T01:15:59.880Z,998.49
2018-02-12T01:16:52.156Z,998.42
2018-02-12T01:17:44.547Z,998.43
2018-02-12T01:18:36.949Z,998.37
2018-02-12T01:19:30.260Z,998.51
2018-02-12T01:20:22.410Z,998.46
2018-02-12T01:21:14.610Z,998.58
2018-02-12T01:22:06.877Z,998.52
2018-02-12T01:22:59.209Z,998.61
2018-02-12T01:23:51.159Z,998.55
2018-02-12T01:24:43.667Z,998.47
2018-02-12T01:25:37.567Z,998.54
2018-02-12T01:26:30.179Z,998.63
2018-02-12T01:27:22.411Z,998.59
2018-02-12T01:28:14.794Z,998.64
2018-02-12T01:29:07.062Z,998.54
2018-02-12T01:29:59.252Z,998.62
2018-02-12T01:30:51.751Z,998.66
2018-02-12T01:31:44.128Z,998.65
2018-02-12T01:32:36.736Z,998.65
2018-02-12T01:33:29.728Z,998.61
2018-02-12T01:34:21.817Z,998.57
2018-02-12T01:35:13.748Z,998.64
2018-02-12T01:36:05.759Z,998.72
2018-02-12T01:36:58.146Z,998.64
2018-02-12T01:37:50.803Z,998.66
2018-02-12T01:38:43.046Z,998.63
2018-02-12T01:39:35.117Z,998.68
2018-02-12T01:40:27.386Z,998.61
2018-02-12T01:41:21.510Z,998.61
2018-02-12T01:42:14.683Z,998.68
2018-02-12T01:43:07.271Z,998.68
2018-02-12T01:43:59.313Z,998.66
2018-02-12T01:44:51.717Z,998.67
2018-02-12T01:45:44.732Z,998.65
2018-02-12T01:46:37.195Z,998.77
2018-02-12T01:47:29.608Z,998.75
2018-02-12T01:48:21.848Z,998.63
2018-02-12T01:49:13.753Z,998.68
2018-02-12T01:50:06.073Z,998.68
2018-02-12T01:50:58.460Z,998.7
2018-02-12T01:51:51.895Z,998.66
2018-02-12T01:52:43.880Z,998.73
2018-02-12T01:53:36.307Z,998.7
2018-02-12T01:54:19.215Z,998.62
2018-02-12T01:54:59.774Z,998.68
2018-02-12T01:55:40.169Z,998.71
2018-02-12T01:56:20.583Z,998.75
2018-02-12T01:57:00.988Z,998.7
2018-02-12T01:57:41.561Z,998.81
2018-02-12T01:58:21.799Z,998.71
2018-02-12T01:59:02.474Z,998.73
2018-02-12T01:59:42.683Z,998.71
2018-02-12T02:00:23.086Z,998.79
2018-02-12T02:01:03.570Z,998.83
2018-02-12T02:01:44.128Z,998.79
2018-02-12T02:02:24.393Z,998.74
2018-02-12T02:03:04.737Z,998.83
2018-02-12T02:03:45.120Z,998.87
2018-02-12T02:04:25.582Z,998.85
2018-02-12T02:05:06.022Z,998.85
2018-02-12T02:05:46.285Z,998.86
2018-02-12T02:06:27.631Z,998.87
2018-02-12T02:07:08.929Z,998.82
2018-02-12T02:07:49.395Z,998.87
2018-02-12T02:08:30.360Z,998.81
2018-02-12T02:09:10.806Z,998.89
2018-02-12T02:09:51.254Z,998.8
2018-02-12T02:10:31.546Z,998.91
2018-02-12T02:11:12.032Z,998.93
2018-02-12T02:11:52.490Z,998.9
2018-02-12T02:12:32.840Z,998.9
2018-02-12T02:13:13.130Z,998.81
2018-02-12T02:13:53.669Z,998.81
2018-02-12T02:14:36.011Z,998.91
2018-02-12T02:15:16.503Z,998.83
2018-02-12T02:15:56.959Z,998.9
2018-02-12T02:16:37.377Z,998.9
2018-02-12T02:17:18.879Z,998.98
2018-02-12T02:17:59.296Z,998.97
2018-02-12T02:18:39.616Z,998.93
2018-02-12T02:19:19.992Z,998.97
2018-02-12T02:20:00.596Z,998.99
2018-02-12T02:20:41.067Z,998.97
2018-02-12T02:21:21.572Z,999.02
2018-02-12T02:22:01.979Z,998.97
2018-02-12T02:22:42.377Z,998.96
2018-02-12T02:23:22.785Z,998.96
2018-02-12T02:24:03.325Z,999
2018-02-12T02:24:43.684Z,999.02
2018-02-12T02:25:26.112Z,998.92
2018-02-12T02:26:06.348Z,998.94
2018-02-12T02:26:46.654Z,998.94
2018-02-12T02:27:27.319Z,998.94
2018-02-12T02:28:07.747Z,998.97
2018-02-12T02:28:48.200Z,998.94
2018-02-12T02:29:28.557Z,998.91
2018-02-12T02:30:08.970Z,998.97
2018-02-12T02:30:49.303Z,998.98
2018-02-12T02:31:29.718Z,998.87
2018-02-12T02:32:10.164Z,998.93
2018-02-12T02:32:50.667Z,998.96
2018-02-12T02:33:30.907Z,998.96
2018-02-12T02:34:11.340Z,998.91
2018-02-12T02:34:52.157Z,998.91
2018-02-12T02:35:32.383Z,998.92
2018-02-12T02:36:12.786Z,998.97
2018-02-12T02:36:53.303Z,998.93
2018-02-12T02:37:33.646Z,998.97
2018-02-12T02:38:14.039Z,998.94
2018-02-12T02:38:54.600Z,998.94
2018-02-12T02:39:35.073Z,998.97
2018-02-12T02:40:15.627Z,999.02
2018-02-12T02:40:55.932Z,998.97
2018-02-12T02:41:36.401Z,998.99
2018-02-12T02:42:16.749Z,998.98
2018-02-12T02:42:57.124Z,999.03
2018-02-12T02:43:37.877Z,999.05
2018-02-12T02:44:18.341Z,999
2018-02-12T02:44:58.704Z,999.03
2018-02-12T02:45:39.053Z,999.08
2018-02-12T02:46:19.738Z,998.98
2018-02-12T02:47:00.073Z,998.91
2018-02-12T02:47:41.589Z,999.02
2018-02-12T02:48:21.847Z,999.05
2018-02-12T02:49:02.539Z,999.05
2018-02-12T02:49:42.817Z,999
2018-02-12T02:50:23.212Z,999.03
2018-02-12T02:51:03.527Z,999.01
2018-02-12T02:51:43.943Z,999.06
2018-02-12T02:52:24.361Z,999.07
2018-02-12T02:53:04.693Z,999.01
2018-02-12T02:53:45.220Z,999.02
2018-02-12T02:54:25.650Z,999.04
2018-02-12T02:55:05.992Z,999.04
2018-02-12T02:55:46.401Z,999.04
2018-02-12T02:56:26.768Z,999
2018-02-12T02:57:07.126Z,999.03
2018-02-12T02:57:47.610Z,999.03
2018-02-12T02:58:27.978Z,998.99
2018-02-12T02:59:08.320Z,999.01
2018-02-12T02:59:48.865Z,999
2018-02-12T03:00:29.164Z,999.02
2018-02-12T03:01:09.562Z,998.95
2018-02-12T03:01:50.095Z,999.01
2018-02-12T03:02:30.616Z,999
2018-02-12T03:03:10.820Z,998.98
2018-02-12T03:03:51.166Z,999.01
2018-02-12T03:04:31.564Z,999
2018-02-12T03:05:12.106Z,998.98
2018-02-12T03:05:52.418Z,998.98
2018-02-12T03:06:32.858Z,999.05
2018-02-12T03:07:13.299Z,999.03
2018-02-12T03:07:53.599Z,999.05
2018-02-12T03:08:34.569Z,999.11
2018-02-12T03:09:14.933Z,999.05
2018-02-12T03:09:55.310Z,999.04
2018-02-12T03:10:35.703Z,999.08
2018-02-12T03:11:16.191Z,999.06
2018-02-12T03:11:56.549Z,999.11
2018-02-12T03:12:37.118Z,999.08
2018-02-12T03:13:17.494Z,999.06
2018-02-12T03:13:57.892Z,999.04
2018-02-12T03:14:38.342Z,999.13
2018-02-12T03:15:18.712Z,999.16
2018-02-12T03:15:59.193Z,999.17
2018-02-12T03:16:39.858Z,999.15
2018-02-12T03:17:20.080Z,999.13
2018-02-12T03:18:00.503Z,999.17
2018-02-12T03:18:40.930Z,999.19
2018-02-12T03:19:21.264Z,999.23
2018-02-12T03:20:01.892Z,999.21
2018-02-12T03:20:42.245Z,999.19
2018-02-12T03:21:22.665Z,999.18
2018-02-12T03:22:03.085Z,999.25
2018-02-12T03:22:43.687Z,999.26
2018-02-12T03:23:24.269Z,999.24
2018-02-12T03:24:04.889Z,999.23
2018-02-12T03:24:46.338Z,999.19
2018-02-12T03:25:26.653Z,999.28
2018-02-12T03:26:07.044Z,999.26
2018-02-12T03:26:47.502Z,999.23
2018-02-12T03:27:27.857Z,999.34
2018-02-12T03:28:09.606Z,999.35
2018-02-12T03:28:49.982Z,999.36
2018-02-12T03:29:30.504Z,999.23
2018-02-12T03:30:10.873Z,999.29
2018-02-12T03:30:51.336Z,999.31
2018-02-12T03:31:31.723Z,999.35
2018-02-12T03:32:12.691Z,999.31
2018-02-12T03:32:52.753Z,999.34
2018-02-12T03:33:33.105Z,999.36
2018-02-12T03:34:13.563Z,999.4
2018-02-12T03:34:54.127Z,999.38
2018-02-12T03:35:34.730Z,999.36
2018-02-12T03:36:14.882Z,999.4
2018-02-12T03:36:55.203Z,999.33
2018-02-12T03:37:35.857Z,999.32
2018-02-12T03:38:16.333Z,999.39
2018-02-12T03:38:56.679Z,999.37
2018-02-12T03:39:37.404Z,999.4
2018-02-12T03:40:17.594Z,999.42
2018-02-12T03:40:58.558Z,999.42
2018-02-12T03:41:38.809Z,999.42
2018-02-12T03:42:19.137Z,999.43
2018-02-12T03:43:00.649Z,999.35
2018-02-12T03:43:41.185Z,999.4
2018-02-12T03:44:21.504Z,999.42
2018-02-12T03:45:02.882Z,999.48
2018-02-12T03:45:43.272Z,999.45
2018-02-12T03:46:23.787Z,999.44
2018-02-12T03:47:04.145Z,999.39
2018-02-12T03:47:44.577Z,999.47
2018-02-12T03:48:24.918Z,999.46
2018-02-12T03:49:05.499Z,999.46
2018-02-12T03:49:45.845Z,999.47
2018-02-12T03:50:26.256Z,999.5
2018-02-12T03:51:06.604Z,999.5
2018-02-12T03:51:47.091Z,999.46
2018-02-12T03:52:27.844Z,999.51
2018-02-12T03:53:08.276Z,999.5
2018-02-12T03:53:49.217Z,999.5
2018-02-12T03:54:29.276Z,999.51
2018-02-12T03:55:09.953Z,999.5
2018-02-12T03:55:50.813Z,999.58
2018-02-12T03:56:31.255Z,999.59
2018-02-12T03:57:11.630Z,999.6
2018-02-12T03:57:52.896Z,999.59
2018-02-12T03:58:33.281Z,999.61
2018-02-12T03:59:13.658Z,999.52
2018-02-12T03:59:54.131Z,999.61
2018-02-12T04:00:34.654Z,999.56
2018-02-12T04:01:15.297Z,999.64
2018-02-12T04:01:55.811Z,999.59
2018-02-12T04:02:36.109Z,999.62
2018-02-12T04:03:16.673Z,999.62
2018-02-12T04:03:56.974Z,999.63
2018-02-12T04:04:39.023Z,999.66
2018-02-12T04:42:51.948Z,1000.01
2018-02-12T04:43:35.117Z,999.98
2018-02-12T04:44:15.631Z,1000.04
2018-02-12T04:44:56.854Z,1000.07
2018-02-12T04:45:38.319Z,1000.03
2018-02-12T04:46:18.698Z,1000.04
2018-02-12T04:46:59.385Z,1000.04
2018-02-12T04:47:39.729Z,1000.12
2018-02-12T04:48:20.228Z,1000.12
2018-02-12T04:49:00.896Z,1000.12
2018-02-12T04:49:41.682Z,1000.07
2018-02-12T04:50:22.298Z,1000.21
2018-02-12T04:51:02.675Z,1000.16
2018-02-12T04:51:43.295Z,1000.15
2018-02-12T04:52:24.334Z,1000.15
2018-02-12T04:53:04.776Z,1000.19
2018-02-12T04:53:45.978Z,1000.17
2018-02-12T04:54:26.589Z,1000.27
2018-02-12T04:55:07.068Z,1000.26
2018-02-12T04:55:47.416Z,1000.22
2018-02-12T04:56:27.976Z,1000.25
2018-02-12T04:57:09.466Z,1000.22
2018-02-12T04:57:49.766Z,1000.3
2018-02-12T04:58:30.198Z,1000.28
2018-02-12T04:59:10.773Z,1000.28
2018-02-12T04:59:51.066Z,1000.27
2018-02-12T05:00:31.560Z,1000.24
2018-02-12T05:01:12.284Z,1000.28
2018-02-12T05:01:52.498Z,1000.29
2018-02-12T05:02:32.979Z,1000.31
2018-02-12T05:03:13.377Z,1000.25
2018-02-12T05:03:53.820Z,1000.31
2018-02-12T05:04:34.272Z,1000.35
2018-02-12T05:07:03.908Z,1000.39
2018-02-12T05:07:45.233Z,1000.37
2018-02-12T05:08:25.758Z,1000.45
2018-02-12T05:09:06.451Z,1000.39
2018-02-12T05:09:46.840Z,1000.36
2018-02-12T05:10:27.340Z,1000.39
2018-02-12T05:11:07.820Z,1000.45
2018-02-12T05:11:48.209Z,1000.49
2018-02-12T05:13:54.917Z,1000.46
2018-02-12T05:14:47.227Z,1000.47
2018-02-12T05:15:39.430Z,1000.47
2018-02-12T05:16:32.022Z,1000.46
2018-02-12T05:17:24.352Z,1000.49
2018-02-12T05:18:16.924Z,1000.49
2018-02-12T05:19:09.538Z,1000.58
2018-02-12T05:20:01.865Z,1000.44
2018-02-12T05:20:53.879Z,1000.52
2018-02-12T05:21:46.268Z,1000.46
2018-02-12T05:22:39.372Z,1000.53
2018-02-12T05:23:31.726Z,1000.56
2018-02-12T05:24:23.887Z,1000.56
2018-02-12T05:25:16.322Z,1000.58
2018-02-12T05:26:08.662Z,1000.59
2018-02-12T05:27:00.326Z,1000.62
2018-02-12T05:27:52.738Z,1000.64
2018-02-12T05:28:44.688Z,1000.67
2018-02-12T05:29:37.054Z,1000.67
2018-02-12T05:30:29.129Z,1000.69
2018-02-12T05:31:21.357Z,1000.66
2018-02-12T05:32:13.720Z,1000.67
2018-02-12T05:33:05.903Z,1000.7
2018-02-12T05:33:57.709Z,1000.72
2018-02-12T05:34:49.841Z,1000.71
2018-02-12T05:35:42.010Z,1000.75
2018-02-12T05:36:34.614Z,1000.73
2018-02-12T05:37:26.682Z,1000.7
2018-02-12T05:38:18.541Z,1000.73
2018-02-12T05:39:10.751Z,1000.73
2018-02-12T05:40:02.797Z,1000.64
2018-02-12T05:40:54.891Z,1000.77
2018-02-12T05:41:47.386Z,1000.76
2018-02-12T05:42:39.368Z,1000.77
2018-02-12T05:43:31.415Z,1000.79
2018-02-12T05:44:23.441Z,1000.77
2018-02-12T05:45:15.874Z,1000.73
2018-02-12T05:46:07.859Z,1000.8
2018-02-12T05:46:59.809Z,1000.77
2018-02-12T05:47:52.334Z,1000.85
2018-02-12T05:48:44.687Z,1000.87
2018-02-12T05:49:37.245Z,1000.84
2018-02-12T05:50:29.364Z,1000.89
2018-02-12T05:51:21.532Z,1000.9
2018-02-12T05:52:13.696Z,1000.88
2018-02-12T05:53:05.587Z,1000.93
2018-02-12T05:53:53.081Z,1000.98
2018-02-12T05:54:33.221Z,1000.97
2018-02-12T05:55:13.769Z,1000.97
2018-02-12T05:55:54.014Z,1000.96
2018-02-12T05:56:34.392Z,1001.01
2018-02-12T05:57:14.916Z,1000.97
2018-02-12T05:57:55.345Z,1000.96
2018-02-12T05:58:35.734Z,1001.04
2018-02-12T05:59:16.155Z,1000.97
2018-02-12T05:59:56.611Z,1000.94
2018-02-12T06:00:37.077Z,1001.01
2018-02-12T06:01:17.417Z,1001.05
2018-02-12T06:01:57.782Z,1001.01
2018-02-12T06:02:38.519Z,1000.93
2018-02-12T06:03:18.905Z,1000.99
2018-02-12T06:03:59.300Z,1001.04
2018-02-12T06:04:39.718Z,1001
2018-02-12T06:05:20.130Z,1001.02
2018-02-12T06:06:00.561Z,1000.99
2018-02-12T06:06:41.090Z,1001.1
2018-02-12T06:07:21.432Z,1001.12
2018-02-12T06:08:01.762Z,1001.01
2018-02-12T06:08:42.185Z,1001.09
2018-02-12T06:09:22.705Z,1001.08
2018-02-12T06:10:03.082Z,1001.1
2018-02-12T06:10:43.540Z,1001.1
2018-02-12T06:11:24.136Z,1001.12
2018-02-12T06:12:04.517Z,1001.09
2018-02-12T06:12:44.927Z,1001.13
2018-02-12T06:13:25.308Z,1001.16
2018-02-12T06:14:05.741Z,1001.18
2018-02-12T06:14:46.122Z,1001.18
2018-02-12T06:15:26.550Z,1001.19
2018-02-12T06:16:07.034Z,1001.23
2018-02-12T06:16:47.487Z,1001.2
2018-02-12T06:17:27.955Z,1001.22
2018-02-12T06:18:08.338Z,1001.17
2018-02-12T06:18:48.713Z,1001.24
2018-02-12T06:19:29.092Z,1001.19
2018-02-12T06:20:09.694Z,1001.26
2018-02-12T06:20:50.139Z,1001.27
2018-02-12T06:21:30.489Z,1001.27
2018-02-12T06:22:10.871Z,1001.37
2018-02-12T06:22:51.302Z,1001.36
2018-02-12T06:23:31.681Z,1001.36
2018-02-12T06:24:12.057Z,1001.34
2018-02-12T06:24:52.455Z,1001.37
2018-02-12T06:25:32.994Z,1001.36
2018-02-12T06:26:13.393Z,1001.38
2018-02-12T06:26:53.874Z,1001.4
2018-02-12T06:27:34.408Z,1001.36
2018-02-12T06:28:14.824Z,1001.4
2018-02-12T06:28:55.808Z,1001.41
2018-02-12T06:29:36.147Z,1001.47
2018-02-12T06:30:16.647Z,1001.45
2018-02-12T06:30:57.115Z,1001.45
2018-02-12T06:31:37.606Z,1001.48
2018-02-12T06:32:18.108Z,1001.49
2018-02-12T06:32:58.511Z,1001.5
2018-02-12T06:33:38.999Z,1001.49
2018-02-12T06:34:19.340Z,1001.53
2018-02-12T06:34:59.805Z,1001.53
2018-02-12T06:35:40.098Z,1001.56
2018-02-12T06:36:20.609Z,1001.61
2018-02-12T06:37:01.012Z,1001.6
2018-02-12T06:37:42.188Z,1001.62
2018-02-12T06:38:22.906Z,1001.6
2018-02-12T06:39:03.804Z,1001.59
2018-02-12T06:39:43.939Z,1001.63
2018-02-12T06:40:25.136Z,1001.62
2018-02-12T06:41:05.449Z,1001.67
2018-02-12T06:41:45.857Z,1001.72
2018-02-12T06:42:26.336Z,1001.72
2018-02-12T06:43:06.825Z,1001.73
2018-02-12T06:43:47.279Z,1001.72
2018-02-12T06:44:27.616Z,1001.73
2018-02-12T06:45:08.025Z,1001.72
2018-02-12T06:45:48.514Z,1001.76
2018-02-12T06:46:28.848Z,1001.8
2018-02-12T06:47:09.250Z,1001.8
2018-02-12T06:47:49.736Z,1001.79
2018-02-12T06:48:30.034Z,1001.8
2018-02-12T06:49:10.403Z,1001.81
2018-02-12T06:49:50.862Z,1001.82
2018-02-12T06:50:31.307Z,1001.83
2018-02-12T06:51:11.824Z,1001.82
2018-02-12T06:51:52.082Z,1001.88
2018-02-12T06:52:32.574Z,1001.92
2018-02-12T06:53:12.888Z,1001.9
2018-02-12T06:53:53.370Z,1001.92
2018-02-12T06:54:33.868Z,1001.85
2018-02-12T06:55:14.184Z,1001.9
2018-02-12T06:55:54.678Z,1001.96
2018-02-12T06:56:34.972Z,1001.95
2018-02-12T06:57:15.451Z,1001.95
2018-02-12T06:57:55.875Z,1001.96
2018-02-12T06:58:36.171Z,1001.96
2018-02-12T06:59:16.596Z,1002.01
2018-02-12T06:59:57.231Z,1002.02
2018-02-12T07:00:37.482Z,1002.03
2018-02-12T07:01:17.934Z,1002.07
2018-02-12T07:01:58.347Z,1002.09
2018-02-12T07:02:38.702Z,1002.15
2018-02-12T07:03:19.131Z,1002.13
2018-02-12T07:03:59.562Z,1002.13
2018-02-12T07:04:40.077Z,1002.11
2018-02-12T07:05:20.446Z,1002.12
2018-02-12T07:06:00.919Z,1002.06
2018-02-12T07:06:41.364Z,1002.13
2018-02-12T07:07:21.753Z,1002.12
2018-02-12T07:08:02.222Z,1002.12
2018-02-12T07:08:42.547Z,1002.13
2018-02-12T07:09:22.959Z,1002.18
2018-02-12T07:10:03.387Z,1002.17
2018-02-12T07:10:43.740Z,1002.23
2018-02-12T07:11:24.136Z,1002.25
2018-02-12T07:12:04.522Z,1002.18
2018-02-12T07:12:44.963Z,1002.2
2018-02-12T07:13:25.345Z,1002.22
2018-02-12T07:14:05.854Z,1002.21
2018-02-12T07:14:46.301Z,1002.22
2018-02-12T07:15:26.646Z,1002.17
2018-02-12T07:16:07.018Z,1002.21
2018-02-12T07:16:47.388Z,1002.23
2018-02-12T07:17:27.995Z,1002.23
2018-02-12T07:18:08.468Z,1002.2
2018-02-12T07:18:48.891Z,1002.25
2018-02-12T07:19:29.366Z,1002.3
2018-02-12T07:20:09.708Z,1002.33
2018-02-12T07:20:50.058Z,1002.34
2018-02-12T07:21:32.282Z,1002.27
2018-02-12T07:22:12.907Z,1002.25
2018-02-12T07:22:55.098Z,1002.25
2018-02-12T07:23:35.509Z,1002.32
2018-02-12T07:24:15.932Z,1002.35
2018-02-12T07:24:56.315Z,1002.33
2018-02-12T07:25:36.799Z,1002.38
2018-02-12T07:26:17.130Z,1002.36
2018-02-12T07:26:57.548Z,1002.44
2018-02-12T07:27:38.054Z,1002.31
2018-02-12T07:28:18.395Z,1002.37
2018-02-12T07:28:58.935Z,1002.36
2018-02-12T07:29:39.325Z,1002.29
2018-02-12T07:30:19.768Z,1002.27
2018-02-12T07:31:02.111Z,1002.34
2018-02-12T07:31:43.503Z,1002.36
2018-02-12T07:32:23.695Z,1002.35
2018-02-12T07:33:04.101Z,1002.37
2018-02-12T07:33:44.392Z,1002.24
2018-02-12T07:34:24.889Z,1002.39
2018-02-12T07:35:05.775Z,1002.44
2018-02-12T07:38:00.294Z,1002.5
2018-02-12T07:38:38.734Z,1002.41
2018-02-12T07:39:19.122Z,1002.43
2018-02-12T07:39:59.897Z,1002.49
2018-02-12T07:40:39.979Z,1002.49
2018-02-12T07:41:20.482Z,1002.47
2018-02-12T07:42:00.746Z,1002.49
2018-02-12T07:42:41.143Z,1002.42
2018-02-12T07:43:21.519Z,1002.45
2018-02-12T07:44:01.908Z,1002.44
2018-02-12T07:44:42.381Z,1002.47
2018-02-12T07:45:23.854Z,1002.51
2018-02-12T07:46:04.274Z,1002.48
2018-02-12T07:46:44.731Z,1002.54
2018-02-12T07:47:25.022Z,1002.57
2018-02-12T07:48:05.468Z,1002.6
2018-02-12T07:48:45.936Z,1002.56
2018-02-12T07:49:26.307Z,1002.46
2018-02-12T07:50:06.737Z,1002.56
2018-02-12T07:52:24.495Z,1002.66
2018-02-12T07:53:05.781Z,1002.64
2018-02-12T07:53:46.806Z,1002.64
2018-02-12T07:54:27.241Z,1002.57
2018-02-12T07:55:08.292Z,1002.62
2018-02-12T07:55:48.766Z,1002.64
2018-02-12T07:56:29.521Z,1002.7
2018-02-12T07:57:10.044Z,1002.66
2018-02-12T07:57:50.396Z,1002.7
2018-02-12T07:58:31.303Z,1002.62
2018-02-12T08:01:48.369Z,1002.68
2018-02-12T08:02:28.999Z,1002.66
2018-02-12T08:03:09.357Z,1002.7
2018-02-12T08:03:49.753Z,1002.69
2018-02-12T08:04:31.459Z,1002.66
2018-02-12T08:06:54.010Z,1002.71
2018-02-12T08:07:36.645Z,1002.7
2018-02-12T08:08:16.894Z,1002.73
2018-02-12T08:08:57.397Z,1002.71
2018-02-12T08:09:38.550Z,1002.72
2018-02-12T08:10:19.193Z,1002.64
2018-02-12T08:10:59.388Z,1002.7
2018-02-12T08:11:39.817Z,1002.61
2018-02-12T08:12:20.301Z,1002.72
2018-02-12T08:13:01.392Z,1002.69
2018-02-12T08:13:41.674Z,1002.75
2018-02-12T08:14:22.883Z,1002.78
2018-02-12T08:15:03.474Z,1002.78
2018-02-12T08:15:44.162Z,1002.82
2018-02-12T08:16:24.583Z,1002.83
2018-02-12T08:17:04.919Z,1002.83
2018-02-12T08:17:45.667Z,1002.78
2018-02-12T08:18:28.536Z,1002.86
2018-02-12T08:19:08.954Z,1002.88
2018-02-12T08:19:49.461Z,1002.93
2018-02-12T08:20:30.778Z,1002.89
2018-02-12T08:23:35.289Z,1002.99
2018-02-12T08:26:15.752Z,1002.99
2018-02-12T08:26:56.360Z,1002.95
2018-02-12T08:27:37.455Z,1003.03
2018-02-12T08:28:18.330Z,1002.98
2018-02-12T08:28:58.688Z,1003.03
2018-02-12T08:29:39.088Z,1003.1
2018-02-12T08:30:19.495Z,1003.09
2018-02-12T08:31:00.104Z,1003.04
2018-02-12T08:31:40.582Z,1003.06
2018-02-12T08:32:20.973Z,1003.14
2018-02-12T08:33:01.401Z,1003.01
2018-02-12T08:33:41.833Z,1003.12
2018-02-12T08:34:22.152Z,1003.1
2018-02-12T08:35:02.706Z,1003.12
2018-02-12T08:35:43.169Z,1003.18
2018-02-12T08:36:23.629Z,1003.18
2018-02-12T08:38:18.731Z,1003.12
2018-02-12T08:39:01.185Z,1003.27
2018-02-12T08:39:41.952Z,1003.25
2018-02-12T08:40:22.335Z,1003.3
2018-02-12T08:41:04.360Z,1003.27
2018-02-12T08:41:44.824Z,1003.3
2018-02-12T08:42:25.373Z,1003.25
2018-02-12T08:43:06.048Z,1003.29
2018-02-12T08:43:46.692Z,1003.3
2018-02-12T08:44:27.058Z,1003.28
2018-02-12T08:45:07.429Z,1003.31
2018-02-12T08:45:47.876Z,1003.31
2018-02-12T08:46:28.311Z,1003.35
2018-02-12T08:47:08.721Z,1003.33
2018-02-12T08:47:49.148Z,1003.28
2018-02-12T08:48:29.624Z,1003.36
2018-02-12T08:49:10.518Z,1003.37
2018-02-12T08:49:50.769Z,1003.46
2018-02-12T08:50:31.560Z,1003.45
2018-02-12T08:51:12.355Z,1003.43
2018-02-12T08:51:52.821Z,1003.4
2018-02-12T08:52:33.293Z,1003.51
2018-02-12T08:53:13.696Z,1003.61
2018-02-12T08:53:54.281Z,1003.53
2018-02-12T08:54:34.892Z,1003.53
2018-02-12T08:55:15.897Z,1003.56
2018-02-12T08:55:56.294Z,1003.54
2018-02-12T08:56:37.788Z,1003.52
2018-02-12T08:57:18.072Z,1003.49
2018-02-12T08:57:58.820Z,1003.54
2018-02-12T08:58:39.382Z,1003.51
2018-02-12T08:59:20.112Z,1003.47
2018-02-12T09:00:00.495Z,1003.44
2018-02-12T09:02:10.966Z,1003.59
2018-02-12T09:04:33.463Z,1003.45
2018-02-12T09:05:13.881Z,1003.55
2018-02-12T09:05:54.738Z,1003.54
2018-02-12T09:06:35.417Z,1003.62
2018-02-12T09:07:15.936Z,1003.6
2018-02-12T09:07:56.970Z,1003.7
2018-02-12T09:08:38.078Z,1003.41
2018-02-12T09:09:19.330Z,1003.56
2018-02-12T09:10:00.120Z,1003.65
2018-02-12T09:10:40.689Z,1003.67
2018-02-12T09:11:21.031Z,1003.68
2018-02-12T09:12:01.508Z,1003.73
2018-02-12T09:12:42.155Z,1003.63
2018-02-12T09:13:22.682Z,1003.62
2018-02-12T09:14:03.534Z,1003.66
2018-02-12T09:14:43.946Z,1003.72
2018-02-12T09:15:24.514Z,1003.71
2018-02-12T09:16:05.007Z,1003.74
2018-02-12T09:16:45.369Z,1003.73
2018-02-12T09:17:25.766Z,1003.79
2018-02-12T09:18:06.482Z,1003.77
2018-02-12T09:18:47.070Z,1003.81
2018-02-12T09:19:27.633Z,1003.74
2018-02-12T09:20:08.055Z,1003.72
2018-02-12T09:20:48.552Z,1003.66
2018-02-12T09:21:28.969Z,1003.75
2018-02-12T09:22:09.484Z,1003.79
2018-02-12T09:22:50.547Z,1003.72
2018-02-12T09:23:31.362Z,1003.8
2018-02-12T09:24:12.783Z,1003.77
2018-02-12T09:24:53.716Z,1003.6
2018-02-12T09:25:34.859Z,1003.9
2018-02-12T09:26:16.902Z,1003.85
2018-02-12T09:26:56.494Z,1003.81
2018-02-12T09:27:37.186Z,1003.78
2018-02-12T09:28:17.824Z,1003.78
2018-02-12T09:28:58.682Z,1003.87
2018-02-12T09:29:39.108Z,1003.79
2018-02-12T09:32:09.145Z,1003.9
2018-02-12T09:32:54.029Z,1004.02
2018-02-12T09:33:34.709Z,1004.02
2018-02-12T09:34:15.408Z,1003.91
2018-02-12T09:34:56.188Z,1003.99
2018-02-12T09:35:36.831Z,1004.03
2018-02-12T09:36:17.321Z,1004.04
2018-02-12T09:36:57.662Z,1003.91
2018-02-12T09:37:38.121Z,1003.93
2018-02-12T09:38:18.660Z,1003.94
2018-02-12T09:38:59.357Z,1003.94
2018-02-12T09:39:39.827Z,1004.03
2018-02-12T09:40:20.331Z,1004.04
2018-02-12T09:41:00.632Z,1004.05
2018-02-12T09:41:42.092Z,1004.03
2018-02-12T09:42:22.696Z,1004.12
2018-02-12T09:43:03.440Z,1004.04
2018-02-12T09:43:43.881Z,1004.11
2018-02-12T09:45:38.465Z,1004.18
2018-02-12T09:48:51.155Z,1004.26
2018-02-12T09:49:31.619Z,1004.36